createdAt,value
2019-02-16T00:01:09.856Z,-1.74
2019-02-16T00:03:40.297Z,-1.68
2019-02-16T00:06:10.749Z,-1.73
2019-02-16T00:08:41.205Z,-1.67
2019-02-16T00:11:11.688Z,-1.53
2019-02-16T00:13:42.069Z,-1.54
2019-02-16T00:16:12.348Z,-1.57
2019-02-16T00:18:42.873Z,-1.52
2019-02-16T00:21:13.651Z,-1.55
2019-02-16T00:23:44.093Z,-1.53
2019-02-16T00:26:14.816Z,-1.66
2019-02-16T00:28:45.138Z,-1.73
2019-02-16T00:31:15.651Z,-1.75
2019-02-16T00:33:46.236Z,-1.81
2019-02-16T00:36:16.845Z,-1.83
2019-02-16T00:38:47.176Z,-1.75
2019-02-16T00:41:17.421Z,-1.81
2019-02-16T00:43:47.711Z,-1.86
2019-02-16T00:46:18.243Z,-1.87
2019-02-16T00:48:48.629Z,-1.89
2019-02-16T00:51:19.218Z,-1.85
2019-02-16T00:53:49.721Z,-1.88
2019-02-16T00:56:20.344Z,-1.79
2019-02-16T00:58:50.754Z,-1.82
2019-02-16T01:01:21.091Z,-1.77
2019-02-16T01:03:51.489Z,-1.74
2019-02-16T01:06:22.310Z,-1.75
2019-02-16T01:08:52.648Z,-1.68
2019-02-16T01:11:24.000Z,-1.75
2019-02-16T01:13:54.256Z,-1.85
2019-02-16T01:16:24.550Z,-1.90
2019-02-16T01:18:54.830Z,-1.90
2019-02-16T01:21:25.106Z,-1.85
2019-02-16T01:23:55.375Z,-1.93
2019-02-16T01:26:25.644Z,-1.90
2019-02-16T01:28:55.923Z,-1.86
2019-02-16T01:31:26.192Z,-1.83
2019-02-16T01:33:56.455Z,-1.87
2019-02-16T01:36:26.724Z,-1.80
2019-02-16T01:38:57.000Z,-1.65
2019-02-16T01:41:27.299Z,-1.61
2019-02-16T01:43:57.572Z,-1.75
2019-02-16T01:46:27.837Z,-1.79
2019-02-16T01:48:58.124Z,-1.83
2019-02-16T01:51:31.854Z,-1.89
2019-02-16T01:54:00.424Z,-1.94
2019-02-16T01:56:30.687Z,-1.94
2019-02-16T01:59:00.967Z,-2.03
2019-02-16T02:01:31.366Z,-2.07
2019-02-16T02:04:01.654Z,-2.09
2019-02-16T02:06:32.005Z,-2.09
2019-02-16T02:09:02.249Z,-2.05
2019-02-16T02:11:34.098Z,-2.06
2019-02-16T02:14:04.367Z,-2.02
2019-02-16T02:16:34.694Z,-2.03
2019-02-16T02:19:04.975Z,-2.01
2019-02-16T02:21:41.180Z,-2.01
2019-02-16T02:24:07.254Z,-2.00
2019-02-16T02:26:37.545Z,-1.95
2019-02-16T02:29:07.805Z,-1.91
2019-02-16T02:31:38.083Z,-1.90
2019-02-16T02:34:08.354Z,-1.95
2019-02-16T02:36:38.684Z,-2.08
2019-02-16T02:39:08.914Z,-2.08
2019-02-16T02:41:39.179Z,-1.98
2019-02-16T02:44:09.453Z,-2.03
2019-02-16T02:46:39.741Z,-2.04
2019-02-16T02:49:10.008Z,-2.01
2019-02-16T02:51:40.279Z,-1.94
2019-02-16T02:54:10.718Z,-1.95
2019-02-16T02:56:41.155Z,-2.03
2019-02-16T02:59:11.416Z,-2.06
2019-02-16T03:01:41.696Z,-2.14
2019-02-16T03:04:12.049Z,-2.14
2019-02-16T03:06:42.323Z,-2.15
2019-02-16T03:09:12.624Z,-2.23
2019-02-16T03:11:42.909Z,-2.26
2019-02-16T03:14:13.202Z,-2.19
2019-02-16T03:16:43.457Z,-2.20
2019-02-16T03:19:13.720Z,-2.25
2019-02-16T03:21:43.987Z,-2.34
2019-02-16T03:24:14.252Z,-2.36
2019-02-16T03:26:47.987Z,-2.32
2019-02-16T03:29:27.546Z,-2.25
2019-02-16T03:32:33.195Z,-2.23
2019-02-16T03:35:12.754Z,-2.15
2019-02-16T03:38:09.124Z,-2.10
2019-02-16T03:40:40.185Z,-2.23
2019-02-16T03:43:10.472Z,-2.30
2019-02-16T03:45:40.780Z,-2.36
2019-02-16T03:48:11.167Z,-2.30
2019-02-16T03:50:41.430Z,-2.26
2019-02-16T03:53:11.705Z,-2.18
2019-02-16T03:55:42.000Z,-2.24
2019-02-16T03:58:12.226Z,-2.16
2019-02-16T04:00:42.498Z,-2.04
2019-02-16T04:03:12.846Z,-2.15
2019-02-16T04:05:43.136Z,-2.31
2019-02-16T04:08:14.954Z,-2.36
2019-02-16T04:10:45.292Z,-2.35
2019-02-16T04:13:15.586Z,-2.29
2019-02-16T04:15:45.923Z,-2.30
2019-02-16T04:18:16.189Z,-2.29
2019-02-16T04:20:46.538Z,-2.24
2019-02-16T04:23:16.791Z,-2.26
2019-02-16T04:25:47.153Z,-2.23
2019-02-16T04:28:17.406Z,-2.14
2019-02-16T04:30:47.708Z,-2.19
2019-02-16T04:33:17.983Z,-2.24
2019-02-16T04:35:48.272Z,-2.33
2019-02-16T04:38:18.535Z,-2.44
2019-02-16T04:40:49.661Z,-2.51
2019-02-16T04:43:19.933Z,-2.53
2019-02-16T04:45:50.205Z,-2.55
2019-02-16T04:48:20.463Z,-2.64
2019-02-16T04:50:50.888Z,-2.68
2019-02-16T04:53:21.164Z,-2.74
2019-02-16T04:55:51.441Z,-2.76
2019-02-16T04:58:21.708Z,-2.80
2019-02-16T05:00:51.990Z,-2.86
2019-02-16T05:03:22.361Z,-2.94
2019-02-16T05:05:52.708Z,-2.97
2019-02-16T05:08:23.085Z,-2.95
2019-02-16T05:10:53.356Z,-3.02
2019-02-16T05:13:23.636Z,-3.04
2019-02-16T05:15:53.924Z,-3.09
2019-02-16T05:18:24.230Z,-3.13
2019-02-16T05:20:54.584Z,-3.19
2019-02-16T05:23:24.852Z,-3.22
2019-02-16T05:25:55.191Z,-3.26
2019-02-16T05:28:25.469Z,-3.27
2019-02-16T05:30:55.738Z,-3.31
2019-02-16T05:33:26.001Z,-3.36
2019-02-16T05:35:56.277Z,-3.36
2019-02-16T05:38:26.531Z,-3.34
2019-02-16T05:40:56.823Z,-3.35
2019-02-16T05:43:27.156Z,-3.37
2019-02-16T05:45:57.573Z,-3.38
2019-02-16T05:48:27.904Z,-3.36
2019-02-16T05:50:58.243Z,-3.32
2019-02-16T05:53:28.503Z,-3.38
2019-02-16T05:55:58.849Z,-3.38
2019-02-16T05:58:29.166Z,-3.37
2019-02-16T06:00:59.501Z,-3.31
2019-02-16T06:03:29.853Z,-3.19
2019-02-16T06:06:00.117Z,-3.19
2019-02-16T06:08:30.515Z,-3.13
2019-02-16T06:11:00.796Z,-3.16
2019-02-16T06:13:31.132Z,-3.17
2019-02-16T06:16:01.489Z,-3.14
2019-02-16T06:18:31.776Z,-3.15
2019-02-16T06:21:02.169Z,-3.14
2019-02-16T06:23:32.480Z,-3.07
2019-02-16T06:26:02.756Z,-3.06
2019-02-16T06:28:33.071Z,-3.04
2019-02-16T06:31:03.364Z,-3.11
2019-02-16T06:33:33.631Z,-3.12
2019-02-16T06:36:05.566Z,-3.09
2019-02-16T06:38:35.838Z,-3.05
2019-02-16T06:41:06.180Z,-3.04
2019-02-16T06:43:36.473Z,-2.97
2019-02-16T06:46:06.727Z,-2.96
2019-02-16T06:48:36.995Z,-2.92
2019-02-16T06:51:07.815Z,-2.87
2019-02-16T06:53:38.102Z,-2.77
2019-02-16T06:56:10.153Z,-2.68
2019-02-16T06:58:40.430Z,-2.60
2019-02-16T07:01:10.807Z,-2.51
2019-02-16T07:03:41.163Z,-2.47
2019-02-16T07:06:11.551Z,-2.42
2019-02-16T07:08:41.818Z,-2.35
2019-02-16T07:11:12.271Z,-2.28
2019-02-16T07:13:42.616Z,-2.19
2019-02-16T07:16:23.339Z,-2.14
2019-02-16T07:19:10.454Z,-2.07
2019-02-16T07:21:40.711Z,-1.98
2019-02-16T07:24:10.989Z,-1.87
2019-02-16T07:26:41.293Z,-1.75
2019-02-16T07:29:11.558Z,-1.63
2019-02-16T07:31:41.823Z,-1.51
2019-02-16T07:34:12.239Z,-1.39
2019-02-16T07:36:42.514Z,-1.21
2019-02-16T07:39:12.839Z,-1.08
2019-02-16T07:41:43.117Z,-0.97
2019-02-16T07:44:15.036Z,-0.76
2019-02-16T07:46:46.959Z,-0.65
2019-02-16T07:49:18.885Z,-0.47
2019-02-16T07:52:08.997Z,-0.30
2019-02-16T07:54:46.818Z,0.05
2019-02-16T07:57:30.806Z,0.34
2019-02-16T08:00:11.563Z,0.70
2019-02-16T08:02:57.240Z,1.28
2019-02-16T08:05:35.829Z,1.95
2019-02-16T08:08:17.112Z,2.61
2019-02-16T08:10:53.639Z,3.12
2019-02-16T08:13:33.825Z,3.55
2019-02-16T08:16:08.696Z,4.05
2019-02-16T08:18:40.652Z,5.09
2019-02-16T08:21:15.543Z,6.12
2019-02-16T08:24:05.815Z,7.14
2019-02-16T08:26:46.974Z,8.14
2019-02-16T08:29:18.939Z,9.21
2019-02-16T08:32:09.842Z,9.63
2019-02-16T08:34:48.341Z,9.78
2019-02-16T08:37:25.931Z,10.56
2019-02-16T08:39:58.039Z,9.61
2019-02-16T08:42:30.732Z,8.23
2019-02-16T08:45:08.373Z,8.35
2019-02-16T08:47:52.056Z,9.25
2019-02-16T08:50:23.990Z,9.37
2019-02-16T08:53:01.552Z,10.48
2019-02-16T08:55:33.466Z,11.09
2019-02-16T08:58:08.017Z,11.81
2019-02-16T09:00:39.927Z,12.30
2019-02-16T09:03:21.190Z,12.27
2019-02-16T09:05:58.849Z,12.76
2019-02-16T09:08:47.237Z,13.21
2019-02-16T09:11:31.489Z,13.48
2019-02-16T09:14:03.475Z,13.22
2019-02-16T09:16:53.536Z,13.68
2019-02-16T09:19:25.502Z,14.38
2019-02-16T09:22:00.584Z,13.89
2019-02-16T09:24:38.245Z,14.45
2019-02-16T09:27:26.457Z,14.88
2019-02-16T09:30:10.749Z,14.20
2019-02-16T09:32:58.963Z,14.99
2019-02-16T09:35:34.115Z,15.09
2019-02-16T09:38:08.861Z,15.58
2019-02-16T09:40:46.700Z,15.71
2019-02-16T09:43:19.602Z,16.02
2019-02-16T09:45:51.524Z,15.42
2019-02-16T09:48:35.663Z,14.88
2019-02-16T09:51:07.748Z,15.83
2019-02-16T09:53:39.586Z,16.20
2019-02-16T09:56:11.505Z,16.63
2019-02-16T09:58:43.487Z,16.49
2019-02-16T10:01:15.482Z,17.45
2019-02-16T10:03:53.865Z,17.32
2019-02-16T10:06:28.688Z,18.38
2019-02-16T10:09:00.617Z,18.38
2019-02-16T10:11:47.371Z,18.22
2019-02-16T10:14:19.302Z,17.47
2019-02-16T10:17:00.185Z,17.14
2019-02-16T10:19:39.595Z,16.86
2019-02-16T10:22:20.588Z,16.82
2019-02-16T10:24:52.527Z,16.36
2019-02-16T10:27:33.991Z,16.59
2019-02-16T10:30:12.799Z,16.51
2019-02-16T10:32:50.647Z,17.33
2019-02-16T10:35:38.968Z,17.20
2019-02-16T10:38:25.932Z,17.26
2019-02-16T10:40:58.103Z,17.12
2019-02-16T10:43:36.596Z,17.44
2019-02-16T10:46:11.596Z,18.01
2019-02-16T10:48:43.516Z,18.57
2019-02-16T10:51:31.988Z,18.68
2019-02-16T10:54:07.925Z,18.72
2019-02-16T10:56:49.003Z,18.43
2019-02-16T10:59:26.826Z,18.43
2019-02-16T11:01:58.755Z,18.38
2019-02-16T11:04:38.337Z,18.83
2019-02-16T11:07:10.046Z,18.83
2019-02-16T11:09:42.944Z,19.64
2019-02-16T11:12:26.931Z,19.82
2019-02-16T11:15:07.852Z,19.47
2019-02-16T11:17:48.567Z,19.71
2019-02-16T11:20:20.642Z,20.43
2019-02-16T11:23:01.556Z,20.23
2019-02-16T11:25:48.889Z,19.76
2019-02-16T11:28:32.800Z,19.87
2019-02-16T11:31:10.894Z,20.35
2019-02-16T11:33:45.680Z,20.07
2019-02-16T11:36:20.593Z,20.77
2019-02-16T11:38:52.915Z,20.74
2019-02-16T11:41:44.474Z,20.07
2019-02-16T11:44:17.135Z,19.85
2019-02-16T11:46:58.304Z,19.19
2019-02-16T11:49:46.714Z,19.47
2019-02-16T11:52:24.765Z,19.81
2019-02-16T11:54:56.779Z,18.91
2019-02-16T11:57:40.661Z,18.10
2019-02-16T12:00:16.111Z,16.65
2019-02-16T12:02:58.501Z,15.70
2019-02-16T12:05:45.481Z,15.44
2019-02-16T12:08:33.836Z,14.97
2019-02-16T12:11:06.258Z,14.60
2019-02-16T12:13:41.393Z,14.55
2019-02-16T12:16:15.976Z,14.51
2019-02-16T12:18:47.889Z,14.51
2019-02-16T12:21:19.872Z,14.45
2019-02-16T12:23:54.471Z,14.52
2019-02-16T12:26:26.637Z,14.55
2019-02-16T12:29:01.513Z,14.54
2019-02-16T12:31:36.219Z,14.65
2019-02-16T12:34:18.047Z,14.67
2019-02-16T12:36:51.941Z,14.57
2019-02-16T12:39:35.891Z,14.70
2019-02-16T12:42:13.844Z,14.73
2019-02-16T12:44:48.206Z,14.59
2019-02-16T12:47:22.839Z,14.69
2019-02-16T12:49:57.691Z,14.67
2019-02-16T12:52:29.612Z,14.78
2019-02-16T12:55:01.532Z,14.80
2019-02-16T12:57:34.565Z,14.90
2019-02-16T13:00:12.562Z,14.98
2019-02-16T13:02:44.551Z,14.96
2019-02-16T13:05:22.518Z,14.89
2019-02-16T13:07:54.490Z,14.99
2019-02-16T13:10:38.365Z,14.98
2019-02-16T13:13:25.235Z,14.98
2019-02-16T13:16:02.909Z,14.91
2019-02-16T13:18:34.813Z,15.13
2019-02-16T13:21:06.756Z,15.01
2019-02-16T13:23:41.509Z,15.00
2019-02-16T13:26:13.454Z,15.09
2019-02-16T13:29:01.876Z,15.08
2019-02-16T13:31:33.836Z,15.07
2019-02-16T13:34:20.661Z,15.10
2019-02-16T13:36:58.522Z,15.06
2019-02-16T13:39:40.495Z,15.18
2019-02-16T13:42:12.528Z,15.20
2019-02-16T13:44:56.811Z,15.39
2019-02-16T13:47:28.738Z,15.36
2019-02-16T13:50:00.650Z,15.30
2019-02-16T13:52:32.665Z,15.41
2019-02-16T13:55:04.598Z,15.41
2019-02-16T13:57:45.328Z,15.63
2019-02-16T14:00:23.083Z,15.66
2019-02-16T14:02:54.996Z,15.72
2019-02-16T14:05:26.903Z,15.90
2019-02-16T14:08:01.764Z,15.80
2019-02-16T14:10:52.113Z,15.91
2019-02-16T14:13:24.200Z,15.92
2019-02-16T14:16:02.196Z,15.97
2019-02-16T14:18:32.712Z,15.99
2019-02-16T14:21:03.004Z,15.87
2019-02-16T14:23:33.285Z,15.72
2019-02-16T14:26:03.559Z,15.83
2019-02-16T14:28:33.818Z,15.95
2019-02-16T14:31:04.320Z,16.06
2019-02-16T14:33:34.599Z,15.95
2019-02-16T14:36:04.873Z,15.86
2019-02-16T14:38:36.871Z,15.66
2019-02-16T14:41:07.257Z,15.54
2019-02-16T14:43:37.611Z,15.45
2019-02-16T14:46:07.841Z,15.34
2019-02-16T14:48:38.138Z,15.36
2019-02-16T14:51:08.427Z,15.19
2019-02-16T14:53:38.706Z,15.18
2019-02-16T14:56:09.000Z,15.00
2019-02-16T14:58:39.268Z,14.93
2019-02-16T15:01:09.528Z,14.89
2019-02-16T15:03:41.400Z,14.83
2019-02-16T15:06:11.677Z,14.63
2019-02-16T15:08:41.939Z,14.12
2019-02-16T15:11:12.207Z,14.12
2019-02-16T15:13:42.532Z,14.18
2019-02-16T15:16:12.833Z,14.09
2019-02-16T15:18:43.149Z,14.05
2019-02-16T15:21:13.404Z,13.98
2019-02-16T15:23:43.738Z,13.97
2019-02-16T15:26:13.979Z,13.88
2019-02-16T15:28:44.276Z,13.75
2019-02-16T15:31:14.542Z,13.46
2019-02-16T15:33:44.830Z,13.26
2019-02-16T15:36:23.483Z,13.18
2019-02-16T15:38:47.080Z,13.10
2019-02-16T15:41:17.407Z,13.07
2019-02-16T15:43:47.895Z,12.88
2019-02-16T15:46:18.293Z,12.69
2019-02-16T15:48:48.600Z,12.76
2019-02-16T15:51:18.929Z,12.77
2019-02-16T15:53:49.521Z,12.56
2019-02-16T15:56:21.751Z,12.60
2019-02-16T15:58:53.320Z,12.27
2019-02-16T16:01:23.683Z,12.03
2019-02-16T16:03:53.948Z,11.60
2019-02-16T16:06:24.221Z,11.26
2019-02-16T16:08:56.432Z,10.98
2019-02-16T16:11:29.304Z,10.85
2019-02-16T16:14:07.761Z,10.77
2019-02-16T16:16:45.634Z,10.54
2019-02-16T16:19:23.502Z,10.49
2019-02-16T16:21:57.932Z,10.42
2019-02-16T16:24:46.048Z,10.29
2019-02-16T16:27:17.992Z,10.11
2019-02-16T16:29:56.038Z,9.52
2019-02-16T16:32:44.418Z,9.26
2019-02-16T16:35:32.701Z,9.16
2019-02-16T16:38:19.639Z,9.07
2019-02-16T16:41:07.837Z,8.94
2019-02-16T16:43:46.952Z,8.71
2019-02-16T16:46:36.810Z,8.38
2019-02-16T16:49:15.514Z,8.32
2019-02-16T16:51:51.921Z,8.22
2019-02-16T16:54:26.854Z,8.06
2019-02-16T16:56:58.574Z,7.89
2019-02-16T16:59:42.460Z,7.85
2019-02-16T17:02:26.250Z,7.72
2019-02-16T17:04:59.944Z,7.75
2019-02-16T17:07:34.612Z,7.85
2019-02-16T17:10:13.706Z,7.77
2019-02-16T17:13:02.453Z,7.56
2019-02-16T17:15:40.403Z,7.09
2019-02-16T17:18:12.552Z,6.65
2019-02-16T17:20:47.222Z,6.49
2019-02-16T17:23:19.308Z,6.37
2019-02-16T17:26:03.120Z,6.25
2019-02-16T17:28:51.447Z,6.25
2019-02-16T17:31:26.071Z,6.23
2019-02-16T17:34:00.655Z,6.22
2019-02-16T17:36:51.605Z,6.27
2019-02-16T17:39:23.882Z,6.24
2019-02-16T17:42:10.992Z,6.15
2019-02-16T17:44:45.563Z,6.08
2019-02-16T17:47:35.162Z,5.89
2019-02-16T17:50:10.323Z,5.78
2019-02-16T17:52:42.326Z,5.68
2019-02-16T17:55:26.244Z,5.58
2019-02-16T17:57:57.979Z,5.52
2019-02-16T18:00:29.898Z,5.36
2019-02-16T18:03:01.910Z,5.29
2019-02-16T18:05:52.127Z,5.34
2019-02-16T18:08:33.271Z,5.40
2019-02-16T18:11:08.277Z,5.46
2019-02-16T18:13:40.326Z,5.50
2019-02-16T18:16:15.258Z,5.47
2019-02-16T18:18:47.172Z,5.32
2019-02-16T18:21:22.023Z,5.20
2019-02-16T18:23:53.944Z,5.13
2019-02-16T18:26:28.774Z,5.40
2019-02-16T18:29:17.164Z,5.63
2019-02-16T18:32:01.096Z,5.40
2019-02-16T18:34:33.002Z,5.35
2019-02-16T18:37:10.949Z,5.22
2019-02-16T18:39:50.124Z,5.01
2019-02-16T18:42:22.225Z,4.96
2019-02-16T18:47:50.523Z,4.98
2019-02-16T18:50:39.575Z,4.97
2019-02-16T18:53:29.589Z,4.94
2019-02-16T18:56:01.525Z,4.64
2019-02-16T18:58:52.837Z,4.32
2019-02-16T19:01:42.682Z,4.20
2019-02-16T19:04:30.907Z,4.26
2019-02-16T19:07:11.743Z,4.31
2019-02-16T19:09:46.624Z,4.29
2019-02-16T19:12:34.921Z,4.35
2019-02-16T19:15:11.780Z,4.31
2019-02-16T19:17:46.343Z,4.32
2019-02-16T19:20:20.949Z,4.33
2019-02-16T19:23:05.871Z,4.47
2019-02-16T19:25:37.880Z,4.52
2019-02-16T19:28:10.000Z,4.54
2019-02-16T19:30:41.922Z,4.66
2019-02-16T19:33:14.508Z,4.63
2019-02-16T19:35:52.499Z,4.36
2019-02-16T19:38:27.146Z,4.28
2019-02-16T19:41:18.338Z,4.18
2019-02-16T19:43:53.459Z,4.18
2019-02-16T19:46:28.401Z,4.19
2019-02-16T19:49:16.797Z,4.21
2019-02-16T19:51:49.491Z,4.28
2019-02-16T19:54:33.475Z,4.10
2019-02-16T19:57:14.260Z,4.02
2019-02-16T20:00:02.948Z,4.01
2019-02-16T20:02:39.010Z,4.14
2019-02-16T20:05:20.064Z,4.32
2019-02-16T20:07:52.156Z,4.21
2019-02-16T20:10:30.562Z,4.27
2019-02-16T20:13:04.765Z,4.26
2019-02-16T20:15:42.559Z,4.01
2019-02-16T20:18:30.870Z,3.71
2019-02-16T20:21:16.370Z,3.61
2019-02-16T20:23:54.313Z,3.70
2019-02-16T20:26:40.130Z,3.88
2019-02-16T20:29:23.879Z,4.06
2019-02-16T20:32:15.715Z,4.06
2019-02-16T20:34:58.037Z,4.07
2019-02-16T20:37:46.375Z,4.05
2019-02-16T20:40:22.743Z,4.13
2019-02-16T20:42:57.971Z,4.21
2019-02-16T20:45:51.423Z,4.27
2019-02-16T20:48:29.680Z,4.17
2019-02-16T20:51:02.077Z,4.17
2019-02-16T20:53:37.905Z,4.17
2019-02-16T20:56:12.607Z,4.33
2019-02-16T20:58:44.968Z,4.46
2019-02-16T21:01:19.593Z,4.32
2019-02-16T21:03:54.491Z,4.16
2019-02-16T21:06:32.534Z,4.01
2019-02-16T21:09:20.882Z,3.86
2019-02-16T21:12:01.687Z,3.79
2019-02-16T21:14:43.430Z,3.72
2019-02-16T21:17:21.299Z,3.67
2019-02-16T21:19:59.127Z,3.75
2019-02-16T21:22:31.023Z,3.74
2019-02-16T21:25:05.916Z,3.67
2019-02-16T21:27:37.806Z,3.52
2019-02-16T21:30:16.940Z,3.37
2019-02-16T21:32:49.151Z,3.16
2019-02-16T21:35:21.156Z,2.88
2019-02-16T21:38:09.442Z,2.65
2019-02-16T21:40:47.291Z,2.63
2019-02-16T21:43:25.402Z,2.44
2019-02-16T21:46:13.970Z,2.17
2019-02-16T21:48:49.148Z,2.03
2019-02-16T21:51:29.634Z,1.92
2019-02-16T21:54:05.455Z,1.80
2019-02-16T21:56:40.719Z,1.71
2019-02-16T21:59:31.114Z,1.70
2019-02-16T22:02:12.228Z,1.71
2019-02-16T22:05:02.098Z,1.73
2019-02-16T22:07:43.457Z,1.73
2019-02-16T22:10:15.657Z,1.66
2019-02-16T22:12:51.492Z,1.55
2019-02-16T22:15:22.140Z,1.52
2019-02-16T22:17:52.812Z,1.32
2019-02-16T22:20:24.626Z,1.09
2019-02-16T22:22:55.092Z,1.00
2019-02-16T22:25:25.359Z,0.93
2019-02-16T22:27:55.923Z,0.95
2019-02-16T22:30:26.315Z,0.89
2019-02-16T22:32:57.373Z,0.85
2019-02-16T22:35:27.747Z,0.82
2019-02-16T22:37:58.047Z,0.74
2019-02-16T22:40:29.280Z,0.71
2019-02-16T22:42:59.537Z,0.63
2019-02-16T22:45:29.965Z,0.49
2019-02-16T22:48:00.388Z,0.34
2019-02-16T22:50:30.675Z,0.31
2019-02-16T22:53:00.951Z,0.33
2019-02-16T22:55:32.150Z,0.30
2019-02-16T22:58:02.415Z,0.26
2019-02-16T23:00:46.300Z,0.25
2019-02-16T23:03:18.770Z,0.21
2019-02-16T23:05:49.106Z,0.13
2019-02-16T23:08:19.420Z,0.16
2019-02-16T23:10:49.672Z,0.11
2019-02-16T23:13:19.986Z,0.04
2019-02-16T23:15:50.261Z,-0.13
2019-02-16T23:18:21.771Z,-0.13
2019-02-16T23:20:52.044Z,-0.13
2019-02-16T23:23:22.331Z,-0.02
2019-02-16T23:25:52.617Z,-0.05
2019-02-16T23:28:23.094Z,-0.12
2019-02-16T23:30:53.615Z,-0.12
2019-02-16T23:33:23.941Z,-0.10
2019-02-16T23:35:54.204Z,-0.11
2019-02-16T23:38:24.497Z,-0.14
2019-02-16T23:40:54.783Z,-0.19
2019-02-16T23:43:27.114Z,-0.27
2019-02-16T23:45:57.379Z,-0.14
2019-02-16T23:48:27.732Z,-0.04
2019-02-16T23:50:58.000Z,0.11
2019-02-16T23:53:28.295Z,-0.01
2019-02-16T23:55:59.352Z,-0.04
2019-02-16T23:58:29.623Z,0.00
